sensor_id;sensor_type;location;lat;lon;timestamp;P1;durP1;ratioP1;P2;durP2;ratioP2
24559;SDS011;12727;49.934;8.656;2023-02-28T00:02:21;4.43;;;2.05;;
24559;SDS011;12727;49.934;8.656;2023-02-28T00:04:46;2.42;;;1.83;;
24559;SDS011;12727;49.934;8.656;2023-02-28T00:07:25;3.53;;;1.90;;
24559;SDS011;12727;49.934;8.656;2023-02-28T00:09:52;4.70;;;1.90;;
24559;SDS011;12727;49.934;8.656;2023-02-28T00:12:18;5.40;;;1.70;;
24559;SDS011;12727;49.934;8.656;2023-02-28T00:14:43;3.92;;;1.70;;
24559;SDS011;12727;49.934;8.656;2023-02-28T00:17:09;5.55;;;1.80;;
24559;SDS011;12727;49.934;8.656;2023-02-28T00:19:34;3.40;;;1.60;;
24559;SDS011;12727;49.934;8.656;2023-02-28T00:22:00;3.15;;;1.73;;
24559;SDS011;12727;49.934;8.656;2023-02-28T00:24:26;4.90;;;1.92;;
24559;SDS011;12727;49.934;8.656;2023-02-28T00:26:51;4.47;;;1.90;;
24559;SDS011;12727;49.934;8.656;2023-02-28T00:29:17;3.20;;;1.70;;
24559;SDS011;12727;49.934;8.656;2023-02-28T00:31:42;2.85;;;1.80;;
24559;SDS011;12727;49.934;8.656;2023-02-28T00:34:08;4.07;;;1.65;;
24559;SDS011;12727;49.934;8.656;2023-02-28T00:36:33;2.92;;;2.15;;
24559;SDS011;12727;49.934;8.656;2023-02-28T00:38:59;3.30;;;2.03;;
24559;SDS011;12727;49.934;8.656;2023-02-28T00:41:25;5.68;;;2.05;;
24559;SDS011;12727;49.934;8.656;2023-02-28T00:43:50;5.13;;;2.50;;
24559;SDS011;12727;49.934;8.656;2023-02-28T00:46:16;3.13;;;2.00;;
24559;SDS011;12727;49.934;8.656;2023-02-28T00:48:41;3.50;;;2.35;;
24559;SDS011;12727;49.934;8.656;2023-02-28T00:51:07;2.92;;;1.90;;
24559;SDS011;12727;49.934;8.656;2023-02-28T00:53:33;3.47;;;2.00;;
24559;SDS011;12727;49.934;8.656;2023-02-28T00:55:58;3.17;;;2.30;;
24559;SDS011;12727;49.934;8.656;2023-02-28T00:58:24;4.82;;;2.30;;
24559;SDS011;12727;49.934;8.656;2023-02-28T01:00:51;3.15;;;2.10;;
24559;SDS011;12727;49.934;8.656;2023-02-28T01:03:18;5.90;;;2.53;;
24559;SDS011;12727;49.934;8.656;2023-02-28T01:05:44;4.03;;;2.40;;
24559;SDS011;12727;49.934;8.656;2023-02-28T01:08:10;3.88;;;2.40;;
24559;SDS011;12727;49.934;8.656;2023-02-28T01:10:37;3.00;;;2.20;;
24559;SDS011;12727;49.934;8.656;2023-02-28T01:13:03;4.25;;;2.45;;
24559;SDS011;12727;49.934;8.656;2023-02-28T01:15:29;2.80;;;2.08;;
24559;SDS011;12727;49.934;8.656;2023-02-28T01:17:56;3.85;;;2.20;;
24559;SDS011;12727;49.934;8.656;2023-02-28T01:20:23;4.15;;;2.40;;
24559;SDS011;12727;49.934;8.656;2023-02-28T01:22:49;5.05;;;2.42;;
24559;SDS011;12727;49.934;8.656;2023-02-28T01:25:15;3.80;;;2.50;;
24559;SDS011;12727;49.934;8.656;2023-02-28T01:27:40;4.68;;;2.70;;
24559;SDS011;12727;49.934;8.656;2023-02-28T01:30:07;4.82;;;2.67;;
24559;SDS011;12727;49.934;8.656;2023-02-28T01:32:33;4.70;;;2.53;;
24559;SDS011;12727;49.934;8.656;2023-02-28T01:34:59;5.72;;;2.75;;
24559;SDS011;12727;49.934;8.656;2023-02-28T01:37:24;5.43;;;2.50;;
24559;SDS011;12727;49.934;8.656;2023-02-28T01:39:50;3.42;;;2.47;;
24559;SDS011;12727;49.934;8.656;2023-02-28T01:42:15;5.78;;;2.70;;
24559;SDS011;12727;49.934;8.656;2023-02-28T01:47:19;3.97;;;2.60;;
24559;SDS011;12727;49.934;8.656;2023-02-28T01:49:45;4.75;;;2.63;;
24559;SDS011;12727;49.934;8.656;2023-02-28T01:52:11;4.85;;;2.88;;
24559;SDS011;12727;49.934;8.656;2023-02-28T01:54:42;4.35;;;3.00;;
24559;SDS011;12727;49.934;8.656;2023-02-28T01:57:16;5.10;;;2.90;;
24559;SDS011;12727;49.934;8.656;2023-02-28T01:59:48;4.57;;;3.10;;
24559;SDS011;12727;49.934;8.656;2023-02-28T02:02:18;5.97;;;3.33;;
24559;SDS011;12727;49.934;8.656;2023-02-28T02:04:49;4.00;;;2.95;;
24559;SDS011;12727;49.934;8.656;2023-02-28T02:07:33;5.88;;;3.15;;
24559;SDS011;12727;49.934;8.656;2023-02-28T02:10:03;4.43;;;3.10;;
24559;SDS011;12727;49.934;8.656;2023-02-28T02:12:45;6.50;;;3.55;;
24559;SDS011;12727;49.934;8.656;2023-02-28T02:17:57;6.60;;;3.10;;
24559;SDS011;12727;49.934;8.656;2023-02-28T02:26:43;5.63;;;3.27;;
24559;SDS011;12727;49.934;8.656;2023-02-28T02:40:22;6.28;;;3.85;;
24559;SDS011;12727;49.934;8.656;2023-02-28T02:43:05;6.35;;;3.40;;
24559;SDS011;12727;49.934;8.656;2023-02-28T02:46:01;6.03;;;3.63;;
24559;SDS011;12727;49.934;8.656;2023-02-28T02:48:29;6.03;;;3.65;;
24559;SDS011;12727;49.934;8.656;2023-02-28T02:50:57;5.65;;;3.83;;
24559;SDS011;12727;49.934;8.656;2023-02-28T02:53:30;5.95;;;4.05;;
24559;SDS011;12727;49.934;8.656;2023-02-28T02:58:27;5.70;;;3.67;;
24559;SDS011;12727;49.934;8.656;2023-02-28T03:00:57;7.25;;;4.07;;
24559;SDS011;12727;49.934;8.656;2023-02-28T03:03:26;6.43;;;4.07;;
24559;SDS011;12727;49.934;8.656;2023-02-28T03:05:55;7.20;;;4.25;;
24559;SDS011;12727;49.934;8.656;2023-02-28T03:08:22;8.82;;;4.40;;
24559;SDS011;12727;49.934;8.656;2023-02-28T03:10:48;7.95;;;4.40;;
24559;SDS011;12727;49.934;8.656;2023-02-28T03:18:36;6.30;;;4.32;;
24559;SDS011;12727;49.934;8.656;2023-02-28T03:21:23;7.38;;;4.35;;
24559;SDS011;12727;49.934;8.656;2023-02-28T03:24:03;6.63;;;4.53;;
24559;SDS011;12727;49.934;8.656;2023-02-28T03:26:34;8.75;;;4.82;;
24559;SDS011;12727;49.934;8.656;2023-02-28T03:29:11;8.43;;;4.50;;
24559;SDS011;12727;49.934;8.656;2023-02-28T03:31:43;7.10;;;4.32;;
24559;SDS011;12727;49.934;8.656;2023-02-28T03:34:22;7.95;;;4.30;;
24559;SDS011;12727;49.934;8.656;2023-02-28T03:36:52;7.70;;;4.60;;
24559;SDS011;12727;49.934;8.656;2023-02-28T03:39:24;8.52;;;4.75;;
24559;SDS011;12727;49.934;8.656;2023-02-28T03:41:57;6.90;;;4.15;;
24559;SDS011;12727;49.934;8.656;2023-02-28T03:44:28;6.38;;;4.40;;
24559;SDS011;12727;49.934;8.656;2023-02-28T03:47:00;6.82;;;4.22;;
24559;SDS011;12727;49.934;8.656;2023-02-28T03:49:34;6.65;;;4.22;;
24559;SDS011;12727;49.934;8.656;2023-02-28T03:52:22;6.30;;;4.45;;
24559;SDS011;12727;49.934;8.656;2023-02-28T03:54:51;9.15;;;4.18;;
24559;SDS011;12727;49.934;8.656;2023-02-28T03:57:25;6.95;;;4.75;;
24559;SDS011;12727;49.934;8.656;2023-02-28T04:00:04;6.30;;;4.13;;
24559;SDS011;12727;49.934;8.656;2023-02-28T04:02:36;5.85;;;4.10;;
24559;SDS011;12727;49.934;8.656;2023-02-28T04:05:02;8.00;;;4.47;;
24559;SDS011;12727;49.934;8.656;2023-02-28T04:07:30;6.97;;;4.30;;
24559;SDS011;12727;49.934;8.656;2023-02-28T04:09:56;6.07;;;3.90;;
24559;SDS011;12727;49.934;8.656;2023-02-28T04:12:22;6.07;;;4.13;;
24559;SDS011;12727;49.934;8.656;2023-02-28T04:14:49;9.40;;;4.32;;
24559;SDS011;12727;49.934;8.656;2023-02-28T04:17:15;6.30;;;4.40;;
24559;SDS011;12727;49.934;8.656;2023-02-28T04:19:41;6.05;;;4.07;;
24559;SDS011;12727;49.934;8.656;2023-02-28T04:22:07;5.47;;;4.20;;
24559;SDS011;12727;49.934;8.656;2023-02-28T04:24:33;6.90;;;4.63;;
24559;SDS011;12727;49.934;8.656;2023-02-28T04:26:59;8.70;;;4.55;;
24559;SDS011;12727;49.934;8.656;2023-02-28T04:29:26;6.28;;;3.63;;
24559;SDS011;12727;49.934;8.656;2023-02-28T04:31:52;6.72;;;4.38;;
24559;SDS011;12727;49.934;8.656;2023-02-28T04:34:24;6.45;;;4.05;;
24559;SDS011;12727;49.934;8.656;2023-02-28T04:36:54;7.80;;;3.78;;
24559;SDS011;12727;49.934;8.656;2023-02-28T04:39:22;5.38;;;3.90;;
24559;SDS011;12727;49.934;8.656;2023-02-28T04:41:48;6.22;;;4.03;;
24559;SDS011;12727;49.934;8.656;2023-02-28T04:44:14;4.82;;;3.38;;
24559;SDS011;12727;49.934;8.656;2023-02-28T04:46:40;7.18;;;4.28;;
24559;SDS011;12727;49.934;8.656;2023-02-28T04:49:06;4.85;;;3.88;;
24559;SDS011;12727;49.934;8.656;2023-02-28T04:51:32;4.63;;;3.35;;
24559;SDS011;12727;49.934;8.656;2023-02-28T04:53:58;4.57;;;3.35;;
24559;SDS011;12727;49.934;8.656;2023-02-28T04:56:24;8.05;;;4.50;;
24559;SDS011;12727;49.934;8.656;2023-02-28T04:58:50;6.28;;;4.00;;
24559;SDS011;12727;49.934;8.656;2023-02-28T05:03:46;9.85;;;4.40;;
24559;SDS011;12727;49.934;8.656;2023-02-28T05:06:13;6.18;;;3.75;;
24559;SDS011;12727;49.934;8.656;2023-02-28T05:08:39;4.97;;;3.50;;
24559;SDS011;12727;49.934;8.656;2023-02-28T05:11:06;6.50;;;3.92;;
24559;SDS011;12727;49.934;8.656;2023-02-28T05:13:41;4.75;;;3.60;;
24559;SDS011;12727;49.934;8.656;2023-02-28T05:16:07;6.35;;;3.58;;
24559;SDS011;12727;49.934;8.656;2023-02-28T05:18:32;6.35;;;3.22;;
24559;SDS011;12727;49.934;8.656;2023-02-28T05:20:59;7.43;;;3.50;;
24559;SDS011;12727;49.934;8.656;2023-02-28T05:23:27;5.32;;;3.45;;
24559;SDS011;12727;49.934;8.656;2023-02-28T05:25:53;5.70;;;3.63;;
24559;SDS011;12727;49.934;8.656;2023-02-28T05:28:19;4.85;;;3.33;;
24559;SDS011;12727;49.934;8.656;2023-02-28T05:30:44;5.25;;;3.80;;
24559;SDS011;12727;49.934;8.656;2023-02-28T05:33:10;4.95;;;3.50;;
24559;SDS011;12727;49.934;8.656;2023-02-28T05:35:37;6.00;;;3.78;;
24559;SDS011;12727;49.934;8.656;2023-02-28T05:38:07;5.05;;;3.63;;
24559;SDS011;12727;49.934;8.656;2023-02-28T05:40:33;6.50;;;3.60;;
24559;SDS011;12727;49.934;8.656;2023-02-28T05:42:59;6.97;;;4.35;;
24559;SDS011;12727;49.934;8.656;2023-02-28T05:45:25;6.05;;;4.25;;
24559;SDS011;12727;49.934;8.656;2023-02-28T05:47:54;8.07;;;3.72;;
24559;SDS011;12727;49.934;8.656;2023-02-28T05:50:20;5.55;;;3.53;;
24559;SDS011;12727;49.934;8.656;2023-02-28T05:52:51;5.45;;;3.83;;
24559;SDS011;12727;49.934;8.656;2023-02-28T05:55:17;7.03;;;3.60;;
24559;SDS011;12727;49.934;8.656;2023-02-28T05:57:43;5.72;;;3.22;;
24559;SDS011;12727;49.934;8.656;2023-02-28T06:00:09;5.18;;;3.40;;
24559;SDS011;12727;49.934;8.656;2023-02-28T06:02:35;7.63;;;3.95;;
24559;SDS011;12727;49.934;8.656;2023-02-28T06:05:00;6.00;;;3.78;;
24559;SDS011;12727;49.934;8.656;2023-02-28T06:07:26;5.18;;;3.92;;
24559;SDS011;12727;49.934;8.656;2023-02-28T06:09:52;5.68;;;3.75;;
24559;SDS011;12727;49.934;8.656;2023-02-28T06:12:17;6.07;;;3.70;;
24559;SDS011;12727;49.934;8.656;2023-02-28T06:14:43;6.53;;;3.60;;
24559;SDS011;12727;49.934;8.656;2023-02-28T06:17:08;6.00;;;3.30;;
24559;SDS011;12727;49.934;8.656;2023-02-28T06:19:36;5.20;;;3.42;;
24559;SDS011;12727;49.934;8.656;2023-02-28T06:22:03;4.40;;;2.60;;
24559;SDS011;12727;49.934;8.656;2023-02-28T06:24:29;6.82;;;3.72;;
24559;SDS011;12727;49.934;8.656;2023-02-28T06:26:56;4.82;;;3.33;;
24559;SDS011;12727;49.934;8.656;2023-02-28T06:29:23;5.25;;;3.38;;
24559;SDS011;12727;49.934;8.656;2023-02-28T06:31:49;4.53;;;3.03;;
24559;SDS011;12727;49.934;8.656;2023-02-28T06:34:16;5.30;;;3.03;;
24559;SDS011;12727;49.934;8.656;2023-02-28T06:36:41;5.95;;;3.72;;
24559;SDS011;12727;49.934;8.656;2023-02-28T06:39:07;5.10;;;3.40;;
24559;SDS011;12727;49.934;8.656;2023-02-28T06:41:34;4.50;;;3.13;;
24559;SDS011;12727;49.934;8.656;2023-02-28T06:44:03;4.95;;;3.35;;
24559;SDS011;12727;49.934;8.656;2023-02-28T06:46:30;8.68;;;3.67;;
24559;SDS011;12727;49.934;8.656;2023-02-28T06:49:00;5.88;;;3.40;;
24559;SDS011;12727;49.934;8.656;2023-02-28T06:51:25;6.80;;;3.30;;
24559;SDS011;12727;49.934;8.656;2023-02-28T06:53:54;7.32;;;3.53;;
24559;SDS011;12727;49.934;8.656;2023-02-28T06:56:19;6.65;;;3.50;;
24559;SDS011;12727;49.934;8.656;2023-02-28T06:58:46;5.40;;;3.67;;
24559;SDS011;12727;49.934;8.656;2023-02-28T07:01:15;6.60;;;3.40;;
24559;SDS011;12727;49.934;8.656;2023-02-28T07:03:41;7.30;;;3.33;;
24559;SDS011;12727;49.934;8.656;2023-02-28T07:06:07;5.90;;;3.58;;
24559;SDS011;12727;49.934;8.656;2023-02-28T07:08:33;4.75;;;3.22;;
24559;SDS011;12727;49.934;8.656;2023-02-28T07:10:59;6.68;;;2.97;;
24559;SDS011;12727;49.934;8.656;2023-02-28T07:13:25;7.40;;;3.38;;
24559;SDS011;12727;49.934;8.656;2023-02-28T07:18:24;4.70;;;3.17;;
24559;SDS011;12727;49.934;8.656;2023-02-28T07:20:50;5.25;;;3.25;;
24559;SDS011;12727;49.934;8.656;2023-02-28T07:23:16;5.53;;;3.28;;
24559;SDS011;12727;49.934;8.656;2023-02-28T07:25:42;5.72;;;3.05;;
24559;SDS011;12727;49.934;8.656;2023-02-28T07:28:08;5.55;;;3.20;;
24559;SDS011;12727;49.934;8.656;2023-02-28T07:30:34;4.30;;;3.00;;
24559;SDS011;12727;49.934;8.656;2023-02-28T07:33:00;5.80;;;3.10;;
24559;SDS011;12727;49.934;8.656;2023-02-28T07:35:25;5.72;;;2.90;;
24559;SDS011;12727;49.934;8.656;2023-02-28T07:37:51;7.07;;;3.40;;
24559;SDS011;12727;49.934;8.656;2023-02-28T07:40:17;4.78;;;2.83;;
24559;SDS011;12727;49.934;8.656;2023-02-28T07:42:43;3.97;;;2.85;;
24559;SDS011;12727;49.934;8.656;2023-02-28T07:45:09;5.85;;;3.45;;
24559;SDS011;12727;49.934;8.656;2023-02-28T07:47:37;5.25;;;3.05;;
24559;SDS011;12727;49.934;8.656;2023-02-28T07:50:04;4.75;;;2.72;;
24559;SDS011;12727;49.934;8.656;2023-02-28T07:52:30;5.10;;;3.28;;
24559;SDS011;12727;49.934;8.656;2023-02-28T07:54:57;5.57;;;3.30;;
24559;SDS011;12727;49.934;8.656;2023-02-28T07:57:22;4.20;;;2.90;;
24559;SDS011;12727;49.934;8.656;2023-02-28T07:59:48;6.32;;;4.03;;
24559;SDS011;12727;49.934;8.656;2023-02-28T08:02:14;6.60;;;3.92;;
24559;SDS011;12727;49.934;8.656;2023-02-28T08:04:42;6.57;;;4.25;;
24559;SDS011;12727;49.934;8.656;2023-02-28T08:07:08;6.82;;;3.58;;
24559;SDS011;12727;49.934;8.656;2023-02-28T08:09:38;4.18;;;2.88;;
24559;SDS011;12727;49.934;8.656;2023-02-28T08:12:10;4.97;;;2.45;;
24559;SDS011;12727;49.934;8.656;2023-02-28T08:14:36;3.40;;;2.40;;
24559;SDS011;12727;49.934;8.656;2023-02-28T08:17:02;4.55;;;2.80;;
24559;SDS011;12727;49.934;8.656;2023-02-28T08:19:29;4.43;;;3.00;;
24559;SDS011;12727;49.934;8.656;2023-02-28T08:21:55;4.70;;;2.83;;
24559;SDS011;12727;49.934;8.656;2023-02-28T08:24:22;3.90;;;2.53;;
24559;SDS011;12727;49.934;8.656;2023-02-28T08:26:47;4.93;;;2.55;;
24559;SDS011;12727;49.934;8.656;2023-02-28T08:29:13;4.28;;;2.50;;
24559;SDS011;12727;49.934;8.656;2023-02-28T08:31:39;3.40;;;2.30;;
24559;SDS011;12727;49.934;8.656;2023-02-28T08:34:08;4.25;;;2.65;;
24559;SDS011;12727;49.934;8.656;2023-02-28T08:36:36;3.88;;;2.60;;
24559;SDS011;12727;49.934;8.656;2023-02-28T08:39:02;4.50;;;2.55;;
24559;SDS011;12727;49.934;8.656;2023-02-28T08:41:28;3.60;;;2.75;;
24559;SDS011;12727;49.934;8.656;2023-02-28T08:43:54;4.63;;;2.75;;
24559;SDS011;12727;49.934;8.656;2023-02-28T08:46:20;5.07;;;3.08;;
24559;SDS011;12727;49.934;8.656;2023-02-28T08:48:45;4.43;;;2.70;;
24559;SDS011;12727;49.934;8.656;2023-02-28T08:51:13;4.10;;;2.60;;
24559;SDS011;12727;49.934;8.656;2023-02-28T08:53:47;5.20;;;3.10;;
24559;SDS011;12727;49.934;8.656;2023-02-28T08:56:14;6.10;;;2.55;;
24559;SDS011;12727;49.934;8.656;2023-02-28T08:58:41;3.38;;;2.78;;
24559;SDS011;12727;49.934;8.656;2023-02-28T09:01:09;4.45;;;3.08;;
24559;SDS011;12727;49.934;8.656;2023-02-28T09:03:37;3.97;;;3.08;;
24559;SDS011;12727;49.934;8.656;2023-02-28T09:06:03;4.13;;;2.75;;
24559;SDS011;12727;49.934;8.656;2023-02-28T09:08:30;5.32;;;3.00;;
24559;SDS011;12727;49.934;8.656;2023-02-28T09:10:56;3.90;;;2.83;;
24559;SDS011;12727;49.934;8.656;2023-02-28T09:13:26;4.95;;;2.90;;
24559;SDS011;12727;49.934;8.656;2023-02-28T09:15:52;5.32;;;2.92;;
24559;SDS011;12727;49.934;8.656;2023-02-28T09:18:18;4.40;;;3.00;;
24559;SDS011;12727;49.934;8.656;2023-02-28T09:20:44;4.00;;;2.70;;
24559;SDS011;12727;49.934;8.656;2023-02-28T09:23:10;5.15;;;3.33;;
24559;SDS011;12727;49.934;8.656;2023-02-28T09:25:45;4.47;;;3.10;;
24559;SDS011;12727;49.934;8.656;2023-02-28T09:28:14;4.55;;;3.20;;
24559;SDS011;12727;49.934;8.656;2023-02-28T09:30:46;5.40;;;3.58;;
24559;SDS011;12727;49.934;8.656;2023-02-28T09:33:13;5.03;;;3.58;;
24559;SDS011;12727;49.934;8.656;2023-02-28T09:35:40;6.63;;;3.55;;
24559;SDS011;12727;49.934;8.656;2023-02-28T09:38:06;5.32;;;3.55;;
24559;SDS011;12727;49.934;8.656;2023-02-28T09:40:34;5.78;;;2.70;;
24559;SDS011;12727;49.934;8.656;2023-02-28T09:43:02;5.72;;;3.70;;
24559;SDS011;12727;49.934;8.656;2023-02-28T09:45:31;7.55;;;3.83;;
24559;SDS011;12727;49.934;8.656;2023-02-28T09:48:01;5.18;;;4.00;;
24559;SDS011;12727;49.934;8.656;2023-02-28T09:50:34;5.85;;;3.70;;
24559;SDS011;12727;49.934;8.656;2023-02-28T09:53:10;5.55;;;3.80;;
24559;SDS011;12727;49.934;8.656;2023-02-28T09:55:55;4.85;;;3.38;;
24559;SDS011;12727;49.934;8.656;2023-02-28T10:01:08;5.85;;;3.83;;
24559;SDS011;12727;49.934;8.656;2023-02-28T10:06:29;5.45;;;3.70;;
24559;SDS011;12727;49.934;8.656;2023-02-28T10:09:04;5.40;;;3.17;;
24559;SDS011;12727;49.934;8.656;2023-02-28T10:11:35;4.78;;;3.45;;
24559;SDS011;12727;49.934;8.656;2023-02-28T10:16:44;6.03;;;4.05;;
24559;SDS011;12727;49.934;8.656;2023-02-28T10:19:41;5.43;;;3.75;;
24559;SDS011;12727;49.934;8.656;2023-02-28T10:22:31;4.97;;;3.55;;
24559;SDS011;12727;49.934;8.656;2023-02-28T10:25:18;4.18;;;3.42;;
24559;SDS011;12727;49.934;8.656;2023-02-28T10:27:53;5.72;;;3.80;;
24559;SDS011;12727;49.934;8.656;2023-02-28T10:30:23;5.32;;;3.78;;
24559;SDS011;12727;49.934;8.656;2023-02-28T10:32:50;6.40;;;4.32;;
24559;SDS011;12727;49.934;8.656;2023-02-28T10:35:22;4.97;;;3.17;;
24559;SDS011;12727;49.934;8.656;2023-02-28T10:37:53;6.07;;;4.43;;
24559;SDS011;12727;49.934;8.656;2023-02-28T10:45:30;8.13;;;4.20;;
24559;SDS011;12727;49.934;8.656;2023-02-28T10:48:02;6.50;;;4.72;;
24559;SDS011;12727;49.934;8.656;2023-02-28T10:53:13;6.05;;;4.10;;
24559;SDS011;12727;49.934;8.656;2023-02-28T10:55:51;4.75;;;3.95;;
24559;SDS011;12727;49.934;8.656;2023-02-28T11:01:18;6.78;;;4.00;;
24559;SDS011;12727;49.934;8.656;2023-02-28T11:03:49;4.35;;;3.33;;
24559;SDS011;12727;49.934;8.656;2023-02-28T11:06:23;7.80;;;4.72;;
24559;SDS011;12727;49.934;8.656;2023-02-28T11:09:01;5.78;;;4.00;;
24559;SDS011;12727;49.934;8.656;2023-02-28T11:11:42;5.05;;;3.78;;
24559;SDS011;12727;49.934;8.656;2023-02-28T11:14:21;5.22;;;3.80;;
24559;SDS011;12727;49.934;8.656;2023-02-28T11:16:50;6.35;;;4.43;;
24559;SDS011;12727;49.934;8.656;2023-02-28T11:19:20;5.53;;;3.85;;
24559;SDS011;12727;49.934;8.656;2023-02-28T11:21:52;5.22;;;3.67;;
24559;SDS011;12727;49.934;8.656;2023-02-28T11:24:29;6.10;;;3.80;;
24559;SDS011;12727;49.934;8.656;2023-02-28T11:27:02;4.78;;;3.72;;
24559;SDS011;12727;49.934;8.656;2023-02-28T11:29:29;5.68;;;4.32;;
24559;SDS011;12727;49.934;8.656;2023-02-28T11:37:14;4.65;;;3.88;;
24559;SDS011;12727;49.934;8.656;2023-02-28T11:39:42;6.68;;;4.80;;
24559;SDS011;12727;49.934;8.656;2023-02-28T11:42:23;6.68;;;4.40;;
24559;SDS011;12727;49.934;8.656;2023-02-28T11:45:15;6.85;;;4.20;;
24559;SDS011;12727;49.934;8.656;2023-02-28T11:48:00;6.75;;;4.40;;
24559;SDS011;12727;49.934;8.656;2023-02-28T11:50:46;7.95;;;4.80;;
24559;SDS011;12727;49.934;8.656;2023-02-28T11:53:48;6.70;;;4.47;;
24559;SDS011;12727;49.934;8.656;2023-02-28T12:04:41;7.07;;;4.13;;
24559;SDS011;12727;49.934;8.656;2023-02-28T12:10:18;7.00;;;4.22;;
24559;SDS011;12727;49.934;8.656;2023-02-28T12:21:42;7.20;;;4.55;;
24559;SDS011;12727;49.934;8.656;2023-02-28T12:24:45;7.07;;;3.92;;
24559;SDS011;12727;49.934;8.656;2023-02-28T12:27:22;5.88;;;4.35;;
24559;SDS011;12727;49.934;8.656;2023-02-28T12:29:53;6.78;;;3.90;;
24559;SDS011;12727;49.934;8.656;2023-02-28T12:32:30;8.60;;;5.53;;
24559;SDS011;12727;49.934;8.656;2023-02-28T12:35:32;6.60;;;5.03;;
24559;SDS011;12727;49.934;8.656;2023-02-28T12:40:42;8.38;;;4.78;;
24559;SDS011;12727;49.934;8.656;2023-02-28T12:43:33;6.95;;;4.47;;
24559;SDS011;12727;49.934;8.656;2023-02-28T12:46:07;8.35;;;6.03;;
24559;SDS011;12727;49.934;8.656;2023-02-28T12:48:46;5.82;;;4.32;;
24559;SDS011;12727;49.934;8.656;2023-02-28T12:51:15;7.13;;;5.30;;
24559;SDS011;12727;49.934;8.656;2023-02-28T12:56:09;8.20;;;5.40;;
24559;SDS011;12727;49.934;8.656;2023-02-28T12:58:54;6.75;;;4.78;;
24559;SDS011;12727;49.934;8.656;2023-02-28T13:07:00;8.48;;;5.65;;
24559;SDS011;12727;49.934;8.656;2023-02-28T13:09:30;6.85;;;4.95;;
24559;SDS011;12727;49.934;8.656;2023-02-28T13:11:55;8.63;;;5.25;;
24559;SDS011;12727;49.934;8.656;2023-02-28T13:14:27;7.63;;;5.32;;
24559;SDS011;12727;49.934;8.656;2023-02-28T13:17:02;9.93;;;6.15;;
24559;SDS011;12727;49.934;8.656;2023-02-28T13:22:40;7.55;;;5.55;;
24559;SDS011;12727;49.934;8.656;2023-02-28T13:27:47;7.72;;;5.00;;
24559;SDS011;12727;49.934;8.656;2023-02-28T13:33:21;7.07;;;5.13;;
24559;SDS011;12727;49.934;8.656;2023-02-28T13:36:35;9.40;;;5.97;;
24559;SDS011;12727;49.934;8.656;2023-02-28T13:44:12;7.00;;;5.47;;
24559;SDS011;12727;49.934;8.656;2023-02-28T13:47:27;10.23;;;6.60;;
24559;SDS011;12727;49.934;8.656;2023-02-28T13:49:27;9.13;;;5.30;;
24559;SDS011;12727;49.934;8.656;2023-02-28T14:00:17;7.78;;;5.13;;
24559;SDS011;12727;49.934;8.656;2023-02-28T14:08:50;9.10;;;5.45;;
24559;SDS011;12727;49.934;8.656;2023-02-28T14:11:37;9.55;;;5.18;;
24559;SDS011;12727;49.934;8.656;2023-02-28T14:14:05;8.35;;;5.60;;
24559;SDS011;12727;49.934;8.656;2023-02-28T14:19:15;9.77;;;6.95;;
24559;SDS011;12727;49.934;8.656;2023-02-28T14:36:18;7.70;;;5.30;;
24559;SDS011;12727;49.934;8.656;2023-02-28T14:38:57;8.88;;;5.85;;
24559;SDS011;12727;49.934;8.656;2023-02-28T14:41:30;9.05;;;6.20;;
24559;SDS011;12727;49.934;8.656;2023-02-28T14:44:02;9.20;;;6.07;;
24559;SDS011;12727;49.934;8.656;2023-02-28T14:46:38;7.28;;;5.38;;
24559;SDS011;12727;49.934;8.656;2023-02-28T14:49:05;9.07;;;5.72;;
24559;SDS011;12727;49.934;8.656;2023-02-28T14:51:36;8.77;;;5.53;;
24559;SDS011;12727;49.934;8.656;2023-02-28T14:54:02;8.43;;;5.53;;
24559;SDS011;12727;49.934;8.656;2023-02-28T14:56:36;9.25;;;6.05;;
24559;SDS011;12727;49.934;8.656;2023-02-28T14:59:03;8.27;;;5.40;;
24559;SDS011;12727;49.934;8.656;2023-02-28T15:01:30;8.55;;;6.25;;
24559;SDS011;12727;49.934;8.656;2023-02-28T15:04:00;8.70;;;6.47;;
24559;SDS011;12727;49.934;8.656;2023-02-28T15:06:27;10.55;;;6.53;;
24559;SDS011;12727;49.934;8.656;2023-02-28T15:11:42;9.18;;;5.93;;
24559;SDS011;12727;49.934;8.656;2023-02-28T15:14:15;9.45;;;7.00;;
24559;SDS011;12727;49.934;8.656;2023-02-28T15:16:44;9.60;;;6.40;;
24559;SDS011;12727;49.934;8.656;2023-02-28T15:19:20;9.93;;;6.15;;
24559;SDS011;12727;49.934;8.656;2023-02-28T15:21:53;8.52;;;5.70;;
24559;SDS011;12727;49.934;8.656;2023-02-28T15:24:42;8.30;;;5.93;;
24559;SDS011;12727;49.934;8.656;2023-02-28T15:27:14;10.15;;;5.80;;
24559;SDS011;12727;49.934;8.656;2023-02-28T15:29:47;7.85;;;5.53;;
24559;SDS011;12727;49.934;8.656;2023-02-28T15:34:55;8.57;;;5.78;;
24559;SDS011;12727;49.934;8.656;2023-02-28T15:39:52;10.02;;;5.60;;
24559;SDS011;12727;49.934;8.656;2023-02-28T15:42:20;10.52;;;6.30;;
24559;SDS011;12727;49.934;8.656;2023-02-28T15:44:47;7.82;;;5.57;;
24559;SDS011;12727;49.934;8.656;2023-02-28T15:47:17;9.77;;;6.05;;
24559;SDS011;12727;49.934;8.656;2023-02-28T15:50:03;8.07;;;5.55;;
24559;SDS011;12727;49.934;8.656;2023-02-28T15:52:37;8.77;;;5.65;;
24559;SDS011;12727;49.934;8.656;2023-02-28T15:55:29;8.57;;;6.03;;
24559;SDS011;12727;49.934;8.656;2023-02-28T15:57:59;9.07;;;5.22;;
24559;SDS011;12727;49.934;8.656;2023-02-28T16:00:30;7.20;;;5.35;;
24559;SDS011;12727;49.934;8.656;2023-02-28T16:02:59;8.80;;;5.80;;
24559;SDS011;12727;49.934;8.656;2023-02-28T16:07:58;8.65;;;5.68;;
24559;SDS011;12727;49.934;8.656;2023-02-28T16:10:26;10.90;;;5.78;;
24559;SDS011;12727;49.934;8.656;2023-02-28T16:12:54;8.45;;;5.18;;
24559;SDS011;12727;49.934;8.656;2023-02-28T16:15:21;8.05;;;5.28;;
24559;SDS011;12727;49.934;8.656;2023-02-28T16:17:54;9.43;;;5.40;;
24559;SDS011;12727;49.934;8.656;2023-02-28T16:20:22;8.05;;;5.07;;
24559;SDS011;12727;49.934;8.656;2023-02-28T16:22:49;8.80;;;5.47;;
24559;SDS011;12727;49.934;8.656;2023-02-28T16:25:17;8.75;;;5.70;;
24559;SDS011;12727;49.934;8.656;2023-02-28T16:27:45;10.43;;;6.05;;
24559;SDS011;12727;49.934;8.656;2023-02-28T16:30:34;11.45;;;6.07;;
24559;SDS011;12727;49.934;8.656;2023-02-28T16:33:00;10.02;;;5.38;;
24559;SDS011;12727;49.934;8.656;2023-02-28T16:35:26;9.93;;;5.30;;
24559;SDS011;12727;49.934;8.656;2023-02-28T16:37:52;7.82;;;5.22;;
24559;SDS011;12727;49.934;8.656;2023-02-28T16:40:19;9.20;;;5.75;;
24559;SDS011;12727;49.934;8.656;2023-02-28T16:42:51;8.95;;;6.85;;
24559;SDS011;12727;49.934;8.656;2023-02-28T16:45:24;7.97;;;5.68;;
24559;SDS011;12727;49.934;8.656;2023-02-28T16:47:51;10.68;;;5.78;;
24559;SDS011;12727;49.934;8.656;2023-02-28T16:50:21;8.07;;;5.97;;
24559;SDS011;12727;49.934;8.656;2023-02-28T16:52:48;8.00;;;5.85;;
24559;SDS011;12727;49.934;8.656;2023-02-28T16:55:14;9.60;;;6.10;;
24559;SDS011;12727;49.934;8.656;2023-02-28T16:57:40;10.27;;;6.43;;
24559;SDS011;12727;49.934;8.656;2023-02-28T17:00:07;8.15;;;5.70;;
24559;SDS011;12727;49.934;8.656;2023-02-28T17:02:35;9.75;;;5.88;;
24559;SDS011;12727;49.934;8.656;2023-02-28T17:05:01;12.00;;;6.18;;
24559;SDS011;12727;49.934;8.656;2023-02-28T17:07:27;9.85;;;5.90;;
24559;SDS011;12727;49.934;8.656;2023-02-28T17:09:52;8.57;;;6.07;;
24559;SDS011;12727;49.934;8.656;2023-02-28T17:12:18;9.48;;;6.05;;
24559;SDS011;12727;49.934;8.656;2023-02-28T17:14:44;10.45;;;6.07;;
24559;SDS011;12727;49.934;8.656;2023-02-28T17:17:11;9.73;;;6.13;;
24559;SDS011;12727;49.934;8.656;2023-02-28T17:19:42;8.75;;;6.03;;
24559;SDS011;12727;49.934;8.656;2023-02-28T17:22:08;11.07;;;5.95;;
24559;SDS011;12727;49.934;8.656;2023-02-28T17:24:34;12.50;;;6.38;;
24559;SDS011;12727;49.934;8.656;2023-02-28T17:27:00;9.35;;;6.25;;
24559;SDS011;12727;49.934;8.656;2023-02-28T17:29:27;9.55;;;5.85;;
24559;SDS011;12727;49.934;8.656;2023-02-28T17:31:53;9.88;;;6.57;;